VLVT/VTE METAR and TAF weather

Enter ICAO airport designator
Station Type Date Time Source
VLVT METAR 2019/07/17 12:30 UTC NOAA

VLVT 171230Z 12002KT 5000 BR SCT016 SCT100 30/25 Q1001 NOSIG


Station Type Date Time Source
VLVT Decoded METAR 2019/07/17 12:30 UTC NOAA

Vientiane, Laos (VLVT) 17-57N 102-34E 171M
Jul 17, 2019 - 08:30 AM EDT / 2019.07.17 1230 UTC
Wind: from the ESE (120 degrees) at 2 MPH (2 KT):0
Visibility: 3 mile(s):0
Sky conditions: partly cloudy
Weather: mist
Temperature: 86 F (30 C)
Heat index: 96.8 F (36.0 C):1
Dew Point: 77 F (25 C)
Relative Humidity: 74%
Pressure (altimeter): 29.56 in. Hg (1001 hPa)
ob: VLVT 171230Z 12002KT 5000 BR SCT016 SCT100 30/25 Q1001 NOSIG
cycle: 12

Station Type Date Time Source
VLVT TAF 2019/07/17 12:36 UTC NOAA

TAF TAF VLVT 171100Z 1712/1812 14004KT 4000 TSRA SCT016 FEW027CB BKN050 SCT100

Example: see airport list